createdAt,value
2017-08-16T00:01:10.605Z,100065.37
2017-08-16T00:03:36.712Z,100067.25
2017-08-16T00:06:02.768Z,100065.70
2017-08-16T00:08:28.891Z,100068.42
2017-08-16T00:10:54.974Z,100071.27
2017-08-16T00:13:21.044Z,100077.92
2017-08-16T00:15:47.118Z,100077.27
2017-08-16T00:18:13.932Z,100078.16
2017-08-16T00:20:40.006Z,100078.89
2017-08-16T00:23:06.108Z,100081.84
2017-08-16T00:25:32.925Z,100078.13
2017-08-16T00:27:59.055Z,100082.98
2017-08-16T00:30:25.135Z,100087.73
2017-08-16T00:32:51.227Z,100085.80
2017-08-16T00:35:18.093Z,100081.23
2017-08-16T00:37:44.163Z,100088.93
2017-08-16T00:40:10.229Z,100082.95
2017-08-16T00:42:37.045Z,100088.31
2017-08-16T00:45:03.106Z,100099.35
2017-08-16T00:47:29.157Z,100110.70
2017-08-16T00:49:55.227Z,100115.20
2017-08-16T00:52:21.294Z,100109.69
2017-08-16T00:54:47.371Z,100107.94
2017-08-16T00:57:13.517Z,100100.02
2017-08-16T00:59:39.573Z,100105.53
2017-08-16T01:02:05.702Z,100107.97
2017-08-16T01:04:31.798Z,100106.34
2017-08-16T01:06:58.596Z,100110.31
2017-08-16T01:09:24.659Z,100108.05
2017-08-16T01:11:51.487Z,100113.94
2017-08-16T01:14:17.557Z,100112.38
2017-08-16T01:16:43.669Z,100098.81
2017-08-16T01:19:09.733Z,100092.31
2017-08-16T01:21:35.765Z,100092.30
2017-08-16T01:24:01.848Z,100095.75
2017-08-16T01:26:27.897Z,100088.57
2017-08-16T01:28:54.009Z,100082.23
2017-08-16T01:31:20.116Z,100081.00
2017-08-16T01:33:46.177Z,100079.23
2017-08-16T01:36:12.288Z,100072.17
2017-08-16T01:38:39.253Z,100073.13
2017-08-16T01:41:05.378Z,100071.43
2017-08-16T01:43:31.460Z,100071.56
2017-08-16T01:45:58.275Z,100063.03
2017-08-16T01:48:24.324Z,100074.61
2017-08-16T01:50:51.142Z,100076.69
2017-08-16T01:53:17.200Z,100069.59
2017-08-16T01:55:43.979Z,100076.48
2017-08-16T01:58:10.067Z,100075.23
2017-08-16T02:00:36.869Z,100068.16
2017-08-16T02:03:02.960Z,100058.68
2017-08-16T02:05:29.068Z,100062.40
2017-08-16T02:07:55.170Z,100058.23
2017-08-16T02:10:21.982Z,100055.41
2017-08-16T02:12:48.096Z,100062.17
2017-08-16T02:15:14.170Z,100055.11
2017-08-16T02:17:41.007Z,100057.60
2017-08-16T02:20:07.846Z,100056.16
2017-08-16T02:22:34.656Z,100062.91
2017-08-16T02:25:00.749Z,100056.46
2017-08-16T02:27:26.817Z,100053.65
2017-08-16T02:29:52.897Z,100060.20
2017-08-16T02:32:18.967Z,100055.55
2017-08-16T02:34:45.027Z,100059.48
2017-08-16T02:37:11.875Z,100057.89
2017-08-16T02:39:38.675Z,100059.55
2017-08-16T02:42:04.750Z,100059.47
2017-08-16T02:44:30.867Z,100063.41
2017-08-16T02:46:56.970Z,100056.95
2017-08-16T02:49:23.086Z,100062.80
2017-08-16T02:51:49.189Z,100063.03
2017-08-16T02:54:15.236Z,100064.06
2017-08-16T02:56:41.299Z,100056.38
2017-08-16T02:59:07.397Z,100057.42
2017-08-16T03:01:33.462Z,100055.31
2017-08-16T03:03:59.504Z,100061.48
2017-08-16T03:06:25.598Z,100060.94
2017-08-16T03:08:51.742Z,100057.25
2017-08-16T03:11:17.813Z,100056.01
2017-08-16T03:13:43.901Z,100054.45
2017-08-16T03:16:10.031Z,100058.28
2017-08-16T03:18:36.128Z,100057.48
2017-08-16T03:21:03.140Z,100067.19
2017-08-16T03:23:29.210Z,100067.89
2017-08-16T03:25:55.344Z,100058.95
2017-08-16T03:28:21.469Z,100061.48
2017-08-16T03:30:47.573Z,100056.16
2017-08-16T03:33:14.384Z,100068.23
2017-08-16T03:35:40.976Z,100066.89
2017-08-16T03:38:07.092Z,100061.78
2017-08-16T03:40:33.186Z,100068.55
2017-08-16T03:42:59.254Z,100073.84
2017-08-16T03:45:25.376Z,100096.45
2017-08-16T03:47:51.539Z,100100.52
2017-08-16T03:50:17.585Z,100102.69
2017-08-16T03:52:43.726Z,100105.72
2017-08-16T03:55:10.570Z,100106.86
2017-08-16T03:57:37.452Z,100111.57
2017-08-16T04:00:03.602Z,100109.97
2017-08-16T04:02:29.755Z,100109.27
2017-08-16T04:04:55.923Z,100116.34
2017-08-16T04:07:21.992Z,100119.13
2017-08-16T04:09:48.162Z,100121.02
2017-08-16T04:12:14.323Z,100112.47
2017-08-16T04:14:40.400Z,100114.25
2017-08-16T04:17:07.221Z,100112.19
2017-08-16T04:19:33.416Z,100111.84
2017-08-16T04:21:59.572Z,100113.28
2017-08-16T04:24:25.658Z,100117.43
2017-08-16T04:26:51.720Z,100120.23
2017-08-16T04:29:17.871Z,100126.58
2017-08-16T04:31:43.963Z,100129.18
2017-08-16T04:34:10.065Z,100133.55
2017-08-16T04:36:36.151Z,100134.77
2017-08-16T04:39:02.972Z,100134.34
2017-08-16T04:41:29.085Z,100124.69
2017-08-16T04:43:55.210Z,100127.59
2017-08-16T04:46:21.270Z,100122.60
2017-08-16T04:48:48.067Z,100126.25
2017-08-16T04:51:15.083Z,100123.78
2017-08-16T04:53:41.154Z,100131.91
2017-08-16T04:56:07.234Z,100124.56
2017-08-16T04:58:33.325Z,100135.69
2017-08-16T05:01:00.170Z,100127.99
2017-08-16T05:03:26.232Z,100129.45
2017-08-16T05:05:52.313Z,100137.47
2017-08-16T05:08:18.411Z,100141.13
2017-08-16T05:10:44.486Z,100145.33
2017-08-16T05:13:11.667Z,100157.04
2017-08-16T05:15:37.773Z,100158.01
2017-08-16T05:18:04.579Z,100166.93
2017-08-16T05:20:30.665Z,100163.94
2017-08-16T05:22:56.750Z,100166.23
2017-08-16T05:25:23.575Z,100167.50
2017-08-16T05:27:49.717Z,100169.27
2017-08-16T05:30:15.823Z,100164.27
2017-08-16T05:32:41.883Z,100161.33
2017-08-16T05:35:08.720Z,100171.22
2017-08-16T05:37:35.569Z,100169.55
2017-08-16T05:40:02.396Z,100172.89
2017-08-16T05:42:28.494Z,100180.78
2017-08-16T05:44:54.576Z,100181.95
2017-08-16T05:47:20.680Z,100185.17
2017-08-16T05:49:47.546Z,100194.84
2017-08-16T05:52:13.609Z,100192.03
2017-08-16T05:54:39.670Z,100191.89
2017-08-16T05:57:06.514Z,100187.65
2017-08-16T05:59:33.328Z,100189.14
2017-08-16T06:01:59.434Z,100192.97
2017-08-16T06:04:25.497Z,100198.06
2017-08-16T06:06:51.590Z,100202.58
2017-08-16T06:09:17.748Z,100199.65
2017-08-16T06:11:43.832Z,100200.62
2017-08-16T06:14:09.904Z,100203.11
2017-08-16T06:16:36.020Z,100204.59
2017-08-16T06:19:02.100Z,100198.25
2017-08-16T06:21:28.156Z,100204.94
2017-08-16T06:23:54.249Z,100207.13
2017-08-16T06:26:20.304Z,100211.38
2017-08-16T06:28:46.362Z,100209.59
2017-08-16T06:31:13.198Z,100214.53
2017-08-16T06:33:39.288Z,100219.94
2017-08-16T06:36:05.395Z,100219.64
2017-08-16T06:38:31.486Z,100224.11
2017-08-16T06:40:58.326Z,100230.48
2017-08-16T06:43:24.442Z,100222.43
2017-08-16T06:45:50.518Z,100230.46
2017-08-16T06:48:16.574Z,100229.52
2017-08-16T06:50:42.673Z,100237.73
2017-08-16T06:53:08.755Z,100233.51
2017-08-16T06:55:35.551Z,100236.92
2017-08-16T06:58:01.636Z,100237.91
2017-08-16T07:00:27.708Z,100248.55
2017-08-16T07:02:53.795Z,100248.88
2017-08-16T07:05:19.888Z,100246.20
2017-08-16T07:07:45.947Z,100252.12
2017-08-16T07:10:12.033Z,100255.42
2017-08-16T07:12:38.152Z,100255.91
2017-08-16T07:15:04.247Z,100263.71
2017-08-16T07:17:30.299Z,100267.16
2017-08-16T07:19:56.404Z,100267.03
2017-08-16T07:22:22.480Z,100268.18
2017-08-16T07:24:49.303Z,100272.23
2017-08-16T07:27:15.365Z,100275.91
2017-08-16T07:29:41.416Z,100280.75
2017-08-16T07:32:07.481Z,100283.27
2017-08-16T07:34:33.600Z,100288.13
2017-08-16T07:36:59.650Z,100299.13
2017-08-16T07:39:26.443Z,100297.02
2017-08-16T07:41:52.547Z,100304.91
2017-08-16T07:44:18.618Z,100299.78
2017-08-16T07:46:44.665Z,100314.39
2017-08-16T07:49:11.513Z,100313.44
2017-08-16T07:51:38.315Z,100316.67
2017-08-16T07:54:04.373Z,100318.43
2017-08-16T07:56:31.193Z,100315.42
2017-08-16T07:58:57.233Z,100316.78
2017-08-16T08:01:23.309Z,100333.09
2017-08-16T08:03:49.387Z,100322.37
2017-08-16T08:06:16.876Z,100330.45
2017-08-16T08:08:42.942Z,100330.41
2017-08-16T08:11:09.069Z,100334.45
2017-08-16T08:13:35.113Z,100346.12
2017-08-16T08:16:01.213Z,100338.81
2017-08-16T08:18:27.432Z,100344.00
2017-08-16T08:20:53.514Z,100345.48
2017-08-16T08:23:20.345Z,100355.36
2017-08-16T08:25:47.186Z,100356.53
2017-08-16T08:28:13.965Z,100362.05
2017-08-16T08:30:40.011Z,100365.55
2017-08-16T08:33:06.085Z,100358.75
2017-08-16T08:35:32.890Z,100379.91
2017-08-16T08:37:58.950Z,100378.52
2017-08-16T08:40:25.811Z,100379.08
2017-08-16T08:42:51.860Z,100377.19
2017-08-16T08:45:17.920Z,100381.34
2017-08-16T08:47:44.044Z,100390.94
2017-08-16T08:50:10.092Z,100385.86
2017-08-16T08:52:36.908Z,100385.00
2017-08-16T08:55:02.991Z,100383.98
2017-08-16T08:57:29.062Z,100383.72
2017-08-16T08:59:55.146Z,100388.22
2017-08-16T09:02:21.239Z,100396.07
2017-08-16T09:04:48.028Z,100396.27
2017-08-16T09:07:14.096Z,100407.36
2017-08-16T09:09:40.195Z,100404.89
2017-08-16T09:12:06.292Z,100403.19
2017-08-16T09:14:32.378Z,100406.18
2017-08-16T09:16:59.220Z,100407.54
2017-08-16T09:19:26.029Z,100399.03
2017-08-16T09:21:52.078Z,100400.45
2017-08-16T09:24:18.187Z,100399.28
2017-08-16T09:26:44.270Z,100396.69
2017-08-16T09:29:10.338Z,100399.48
2017-08-16T09:31:36.458Z,100406.43
2017-08-16T09:34:02.542Z,100405.58
2017-08-16T09:36:35.319Z,100401.61
2017-08-16T09:39:01.415Z,100408.96
2017-08-16T09:41:27.507Z,100403.80
2017-08-16T09:43:53.578Z,100396.68
2017-08-16T09:46:20.420Z,100396.81
2017-08-16T09:48:47.242Z,100398.18
2017-08-16T09:51:13.280Z,100399.92
2017-08-16T09:53:39.585Z,100403.92
2017-08-16T09:56:05.626Z,100402.73
2017-08-16T09:58:31.704Z,100407.39
2017-08-16T10:00:57.836Z,100409.32
2017-08-16T10:03:23.895Z,100405.20
2017-08-16T10:05:49.959Z,100404.42
2017-08-16T10:08:16.183Z,100406.59
2017-08-16T10:10:42.977Z,100408.53
2017-08-16T10:13:09.046Z,100410.77
2017-08-16T10:15:35.926Z,100410.64
2017-08-16T10:18:02.084Z,100407.09
2017-08-16T10:20:28.176Z,100410.02
2017-08-16T10:22:54.274Z,100400.44
2017-08-16T10:25:20.338Z,100396.13
2017-08-16T10:27:46.400Z,100396.56
2017-08-16T10:30:12.492Z,100401.33
2017-08-16T10:32:38.551Z,100399.51
2017-08-16T10:35:04.634Z,100402.87
2017-08-16T10:37:30.743Z,100399.00
2017-08-16T10:39:56.790Z,100397.64
2017-08-16T10:42:22.864Z,100407.70
2017-08-16T10:44:49.730Z,100401.02
2017-08-16T10:47:15.808Z,100414.22
2017-08-16T10:49:41.878Z,100412.09
2017-08-16T10:52:08.091Z,100411.66
2017-08-16T10:54:34.274Z,100407.20
2017-08-16T10:57:00.354Z,100409.25
2017-08-16T10:59:26.455Z,100402.97
2017-08-16T11:01:52.564Z,100399.08
2017-08-16T11:04:18.642Z,100399.54
2017-08-16T11:06:44.717Z,100408.26
2017-08-16T11:09:10.779Z,100396.97
2017-08-16T11:11:37.652Z,100401.39
2017-08-16T11:14:04.307Z,100404.72
2017-08-16T11:16:30.414Z,100401.34
2017-08-16T11:18:56.504Z,100407.61
2017-08-16T11:21:23.354Z,100409.61
2017-08-16T11:23:50.141Z,100418.95
2017-08-16T11:26:16.218Z,100419.55
2017-08-16T11:28:43.161Z,100426.50
2017-08-16T11:31:10.020Z,100438.92
2017-08-16T11:33:36.242Z,100439.72
2017-08-16T11:36:02.364Z,100445.03
2017-08-16T11:38:29.163Z,100440.52
2017-08-16T11:40:55.562Z,100453.28
2017-08-16T11:43:21.664Z,100455.80
2017-08-16T11:45:48.574Z,100461.30
2017-08-16T11:48:14.703Z,100459.25
2017-08-16T11:50:40.856Z,100463.96
2017-08-16T11:53:07.764Z,100469.56
2017-08-16T11:55:33.928Z,100461.78
2017-08-16T11:58:01.066Z,100472.84
2017-08-16T12:00:27.944Z,100464.19
2017-08-16T12:02:54.108Z,100475.46
2017-08-16T12:05:20.310Z,100482.13
2017-08-16T12:07:46.557Z,100489.44
2017-08-16T12:10:12.750Z,100483.91
2017-08-16T12:12:38.932Z,100480.94
2017-08-16T12:15:05.104Z,100480.66
2017-08-16T12:17:31.205Z,100478.99
2017-08-16T12:19:57.315Z,100478.06
2017-08-16T12:22:23.382Z,100481.94
2017-08-16T12:24:49.590Z,100468.67
2017-08-16T12:27:15.766Z,100475.98
2017-08-16T12:29:41.908Z,100469.68
2017-08-16T12:32:07.960Z,100469.16
2017-08-16T12:34:34.112Z,100477.37
2017-08-16T12:37:00.996Z,100475.90
2017-08-16T12:39:27.069Z,100477.13
2017-08-16T12:41:53.951Z,100475.53
2017-08-16T12:44:20.093Z,100477.50
2017-08-16T12:46:46.211Z,100478.13
2017-08-16T12:49:12.342Z,100481.88
2017-08-16T12:51:38.402Z,100475.19
2017-08-16T12:54:04.486Z,100479.62
2017-08-16T12:56:30.576Z,100475.37
2017-08-16T12:58:57.372Z,100485.31
2017-08-16T13:01:23.477Z,100481.34
2017-08-16T13:03:49.738Z,100479.28
2017-08-16T13:06:15.797Z,100479.67
2017-08-16T13:08:42.639Z,100489.42
2017-08-16T13:11:09.518Z,100479.56
2017-08-16T13:13:35.612Z,100479.28
2017-08-16T13:16:02.430Z,100484.94
2017-08-16T13:18:28.580Z,100483.58
2017-08-16T13:20:56.351Z,100488.81
2017-08-16T13:23:23.271Z,100483.34
2017-08-16T13:25:49.388Z,100475.84
2017-08-16T13:28:15.503Z,100482.59
2017-08-16T13:30:41.573Z,100481.33
2017-08-16T13:33:07.673Z,100483.80
2017-08-16T13:35:33.789Z,100476.05
2017-08-16T13:37:59.917Z,100477.58
2017-08-16T13:40:26.041Z,100480.02
2017-08-16T13:42:52.127Z,100469.72
2017-08-16T13:45:18.897Z,100480.73
2017-08-16T13:47:45.009Z,100479.73
2017-08-16T13:50:11.076Z,100481.53
2017-08-16T13:52:37.181Z,100479.80
2017-08-16T13:55:03.273Z,100484.27
2017-08-16T13:57:29.371Z,100481.64
2017-08-16T13:59:56.175Z,100473.77
2017-08-16T14:02:22.291Z,100462.05
2017-08-16T14:04:48.385Z,100467.13
2017-08-16T14:07:14.450Z,100468.13
2017-08-16T14:09:40.549Z,100471.91
2017-08-16T14:12:06.687Z,100468.31
2017-08-16T14:14:32.815Z,100465.14
2017-08-16T14:16:58.940Z,100461.14
2017-08-16T14:19:25.036Z,100466.70
2017-08-16T14:21:51.164Z,100460.48
2017-08-16T14:24:17.318Z,100458.55
2017-08-16T14:26:43.440Z,100457.27
2017-08-16T14:29:09.846Z,100458.66
2017-08-16T14:31:35.928Z,100456.02
2017-08-16T14:34:02.022Z,100453.53
2017-08-16T14:36:28.147Z,100452.38
2017-08-16T14:38:56.872Z,100450.66
2017-08-16T14:41:34.121Z,100445.98
2017-08-16T14:46:51.506Z,100444.23
2017-08-16T14:49:17.673Z,100439.08
2017-08-16T14:51:43.755Z,100437.21
2017-08-16T14:54:09.910Z,100433.00
2017-08-16T14:56:36.035Z,100430.72
2017-08-16T14:59:02.872Z,100436.59
2017-08-16T15:01:29.762Z,100438.95
2017-08-16T15:03:55.952Z,100442.97
2017-08-16T15:06:22.784Z,100442.28
2017-08-16T15:08:48.905Z,100445.64
2017-08-16T15:11:15.748Z,100438.81
2017-08-16T15:13:42.564Z,100442.65
2017-08-16T15:16:08.681Z,100437.69
2017-08-16T15:18:34.792Z,100442.97
2017-08-16T15:21:00.876Z,100442.20
2017-08-16T15:23:27.738Z,100433.50
2017-08-16T15:25:53.825Z,100424.80
2017-08-16T15:28:19.892Z,100425.64
2017-08-16T15:30:46.001Z,100426.15
2017-08-16T15:33:12.853Z,100427.75
2017-08-16T15:35:38.943Z,100426.93
2017-08-16T15:38:05.080Z,100428.67
2017-08-16T15:40:31.236Z,100434.48
2017-08-16T15:42:57.419Z,100423.67
2017-08-16T15:45:23.614Z,100419.91
2017-08-16T15:47:56.577Z,100425.55
2017-08-16T15:50:22.800Z,100421.55
2017-08-16T15:52:48.941Z,100422.30
2017-08-16T15:55:15.090Z,100416.12
2017-08-16T15:57:41.206Z,100418.58
2017-08-16T16:00:07.330Z,100419.63
2017-08-16T16:02:33.408Z,100415.52
2017-08-16T16:04:59.586Z,100413.84
2017-08-16T16:07:25.692Z,100408.98
2017-08-16T16:09:51.798Z,100412.27
2017-08-16T16:12:18.680Z,100420.07
2017-08-16T16:14:44.982Z,100420.11
2017-08-16T16:17:11.296Z,100420.63
2017-08-16T16:19:37.522Z,100421.47
2017-08-16T16:22:03.738Z,100420.20
2017-08-16T16:24:29.868Z,100413.21
2017-08-16T16:26:56.159Z,100419.84
2017-08-16T16:29:22.286Z,100428.06
2017-08-16T16:31:48.448Z,100429.40
2017-08-16T16:34:14.633Z,100420.49
2017-08-16T16:36:40.790Z,100422.77
2017-08-16T16:39:06.957Z,100418.67
2017-08-16T16:41:33.146Z,100424.73
2017-08-16T16:43:59.399Z,100419.11
2017-08-16T16:46:25.525Z,100419.98
2017-08-16T16:48:51.724Z,100417.05
2017-08-16T16:51:17.974Z,100417.34
2017-08-16T16:53:44.872Z,100413.51
2017-08-16T16:56:11.087Z,100414.64
2017-08-16T16:58:37.205Z,100421.33
2017-08-16T17:01:03.491Z,100418.16
2017-08-16T17:03:29.696Z,100424.28
2017-08-16T17:05:55.873Z,100428.22
2017-08-16T17:08:23.743Z,100414.52
2017-08-16T17:10:50.595Z,100427.55
2017-08-16T17:13:17.433Z,100430.84
2017-08-16T17:15:44.269Z,100429.83
2017-08-16T17:18:10.505Z,100427.16
2017-08-16T17:20:37.347Z,100426.58
2017-08-16T17:23:04.152Z,100434.09
2017-08-16T17:25:30.245Z,100439.58
2017-08-16T17:27:56.313Z,100440.33
2017-08-16T17:30:22.375Z,100433.57
2017-08-16T17:32:49.195Z,100437.80
2017-08-16T17:35:15.301Z,100438.27
2017-08-16T17:37:41.403Z,100435.70
2017-08-16T17:40:07.493Z,100435.36
2017-08-16T17:42:35.378Z,100430.57
2017-08-16T17:45:01.522Z,100430.37
2017-08-16T17:47:27.674Z,100421.39
2017-08-16T17:49:53.736Z,100424.38
2017-08-16T17:52:20.547Z,100433.68
2017-08-16T17:54:46.684Z,100428.56
2017-08-16T17:57:17.848Z,100424.25
2017-08-16T17:59:44.001Z,100425.02
2017-08-16T18:02:10.240Z,100429.30
2017-08-16T18:04:36.379Z,100425.38
2017-08-16T18:07:02.447Z,100431.27
2017-08-16T18:09:29.631Z,100434.28
2017-08-16T18:11:55.934Z,100433.64
2017-08-16T18:14:22.810Z,100431.27
2017-08-16T18:16:48.893Z,100439.77
2017-08-16T18:19:17.430Z,100439.79
2017-08-16T18:21:44.884Z,100438.49
2017-08-16T18:24:14.838Z,100446.91
2017-08-16T18:26:41.013Z,100441.14
2017-08-16T18:29:07.147Z,100451.80
2017-08-16T18:31:33.301Z,100450.00
2017-08-16T18:33:59.676Z,100459.72
2017-08-16T18:36:26.528Z,100462.23
2017-08-16T18:38:53.399Z,100465.09
2017-08-16T18:41:19.685Z,100469.23
2017-08-16T18:43:45.759Z,100467.98
2017-08-16T18:46:11.911Z,100471.83
2017-08-16T18:48:38.045Z,100473.80
2017-08-16T18:51:04.977Z,100476.83
2017-08-16T18:53:31.099Z,100479.32
2017-08-16T18:55:57.255Z,100480.77
2017-08-16T18:58:23.565Z,100487.97
2017-08-16T19:00:49.958Z,100486.90
2017-08-16T19:03:16.130Z,100491.52
2017-08-16T19:05:42.259Z,100491.70
2017-08-16T19:08:08.393Z,100491.27
2017-08-16T19:10:34.488Z,100489.96
2017-08-16T19:13:00.623Z,100489.11
2017-08-16T19:15:26.809Z,100487.46
2017-08-16T19:17:53.672Z,100489.07
2017-08-16T19:20:20.683Z,100494.91
2017-08-16T19:22:46.826Z,100500.47
2017-08-16T19:25:12.930Z,100500.05
2017-08-16T19:27:39.261Z,100506.56
2017-08-16T19:30:05.395Z,100509.17
2017-08-16T19:32:32.299Z,100513.22
2017-08-16T19:34:58.455Z,100509.36
2017-08-16T19:37:24.691Z,100506.69
2017-08-16T19:39:51.520Z,100508.63
2017-08-16T19:42:17.670Z,100514.05
2017-08-16T19:44:44.548Z,100505.60
2017-08-16T19:47:10.644Z,100510.05
2017-08-16T19:49:37.494Z,100505.93
2017-08-16T19:52:04.347Z,100502.14
2017-08-16T19:54:30.474Z,100506.23
2017-08-16T19:56:56.615Z,100503.88
2017-08-16T19:59:22.716Z,100504.08
2017-08-16T20:01:49.629Z,100512.02
2017-08-16T20:04:15.726Z,100510.28
2017-08-16T20:06:41.845Z,100509.75
2017-08-16T20:09:07.942Z,100503.53
2017-08-16T20:11:34.100Z,100508.16
2017-08-16T20:14:00.266Z,100509.66
2017-08-16T20:16:26.329Z,100507.22
2017-08-16T20:18:52.411Z,100514.17
2017-08-16T20:21:19.477Z,100509.71
2017-08-16T20:23:46.373Z,100511.67
2017-08-16T20:26:12.485Z,100507.34
2017-08-16T20:28:38.577Z,100510.65
2017-08-16T20:31:04.641Z,100508.78
2017-08-16T20:33:30.756Z,100502.83
2017-08-16T20:35:56.862Z,100499.94
2017-08-16T20:38:23.689Z,100497.20
2017-08-16T20:40:50.506Z,100498.17
2017-08-16T20:43:16.609Z,100498.37
2017-08-16T20:45:43.028Z,100496.09
2017-08-16T20:48:09.078Z,100499.01
2017-08-16T20:50:35.176Z,100495.64
2017-08-16T20:53:01.291Z,100492.31
2017-08-16T20:55:27.406Z,100495.70
2017-08-16T20:57:54.233Z,100492.91
2017-08-16T21:00:20.328Z,100489.81
2017-08-16T21:02:46.435Z,100504.73
2017-08-16T21:05:12.546Z,100499.54
2017-08-16T21:07:38.610Z,100501.26
2017-08-16T21:10:04.724Z,100502.92
2017-08-16T21:12:30.849Z,100505.28
2017-08-16T21:14:56.943Z,100503.84
2017-08-16T21:17:23.065Z,100498.09
2017-08-16T21:19:49.874Z,100504.45
2017-08-16T21:22:15.959Z,100502.09
2017-08-16T21:24:42.062Z,100507.53
2017-08-16T21:27:08.153Z,100507.02
2017-08-16T21:29:34.289Z,100497.54
2017-08-16T21:32:00.375Z,100495.39
2017-08-16T21:34:26.493Z,100489.80
2017-08-16T21:36:52.560Z,100486.50
2017-08-16T21:39:18.652Z,100486.55
2017-08-16T21:41:44.798Z,100489.08
2017-08-16T21:44:10.934Z,100486.39
2017-08-16T21:46:37.392Z,100487.35
2017-08-16T21:49:04.236Z,100495.41
2017-08-16T21:51:31.074Z,100486.80
2017-08-16T21:53:57.916Z,100492.80
2017-08-16T21:56:24.757Z,100492.47
2017-08-16T21:58:51.603Z,100495.55
2017-08-16T22:01:18.454Z,100495.45
2017-08-16T22:03:45.373Z,100493.22
2017-08-16T22:06:11.498Z,100496.25
2017-08-16T22:08:37.555Z,100492.25
2017-08-16T22:11:04.398Z,100491.73
2017-08-16T22:13:31.265Z,100487.22
2017-08-16T22:15:57.416Z,100484.22
2017-08-16T22:18:23.492Z,100490.55
2017-08-16T22:20:49.647Z,100485.53
2017-08-16T22:23:15.754Z,100484.73
2017-08-16T22:25:42.008Z,100488.37
2017-08-16T22:28:08.584Z,100485.25
2017-08-16T22:30:34.669Z,100484.44
2017-08-16T22:33:00.729Z,100477.38
2017-08-16T22:35:26.799Z,100471.36
2017-08-16T22:37:52.891Z,100481.00
2017-08-16T22:40:18.977Z,100475.77
2017-08-16T22:42:45.163Z,100478.22
2017-08-16T22:45:12.394Z,100477.41
2017-08-16T22:47:38.486Z,100472.55
2017-08-16T22:50:04.577Z,100473.88
2017-08-16T22:52:30.679Z,100483.48
2017-08-16T22:54:56.741Z,100484.09
2017-08-16T22:57:23.017Z,100479.83
2017-08-16T22:59:49.109Z,100478.88
2017-08-16T23:02:15.192Z,100476.94
2017-08-16T23:04:42.175Z,100476.38
2017-08-16T23:07:08.273Z,100475.98
2017-08-16T23:09:35.102Z,100476.41
2017-08-16T23:12:02.314Z,100479.75
2017-08-16T23:14:28.392Z,100472.86
2017-08-16T23:16:55.204Z,100473.95
2017-08-16T23:19:22.639Z,100466.94
2017-08-16T23:21:48.721Z,100462.31
2017-08-16T23:24:15.560Z,100466.12
2017-08-16T23:26:42.719Z,100471.55
2017-08-16T23:29:08.789Z,100470.20
2017-08-16T23:31:34.870Z,100463.89
2017-08-16T23:34:00.960Z,100464.67
2017-08-16T23:36:27.030Z,100466.95
2017-08-16T23:38:53.190Z,100466.75
2017-08-16T23:41:19.270Z,100458.92
2017-08-16T23:43:45.358Z,100464.37
2017-08-16T23:46:11.455Z,100460.77
2017-08-16T23:48:37.981Z,100456.70
2017-08-16T23:51:04.087Z,100457.30
2017-08-16T23:53:30.149Z,100456.81
2017-08-16T23:55:56.507Z,100450.28
2017-08-16T23:58:22.608Z,100448.36
